Profiler II Survey — CZ2496 — position and weather

sailwx.info

Track history (hours):
 
Tides and Currents Weather Stations Pressure Air Temp Water Temp Dewpoint Dewpoint Depression Visibility Wind Speed Wind Dir Waves Ship Positions

Profiler II Survey

Last reported at 2014-Sep-16 19:26 UTC. Time now 2014-Sep-17 19:40 UTC.
Position N 49°12' W 122°55'.

Length 11 m.

Type: Dredging. MMSI: 316002054.

Date/timePositionNaut miles runAvg speedWind from/ knotsBaromVisibWave heightAir tempDewpointWater temp
2014-Sep-16 19:26N 49°12' W 122°55'11 9.6
2014-Sep-16 18:15N 49°07' W 123°11'2 3.2
2014-Sep-16 17:33N 49°08' W 123°14'1 0.9
2014-Sep-16 16:33N 49°08' W 123°13'1 0.1
2014-Sep-15 21:19N 49°07' W 123°11'2 2.2
2014-Sep-15 20:33N 49°08' W 123°13'0 0.4
2014-Sep-15 19:32N 49°08' W 123°14'1 1.0
2014-Sep-15 18:32N 49°08' W 123°12'0 0.1
2014-Sep-15 17:33N 49°08' W 123°13'0 0.4
2014-Sep-15 16:32N 49°08' W 123°13'1 1.4
2014-Sep-15 15:31N 49°07' W 123°11'  
2014-Sep-11 21:27N 49°07' W 123°11'5 5.8
2014-Sep-11 20:32N 49°06' W 123°19'0 0.2
2014-Sep-11 19:33N 49°06' W 123°19'1 0.7
2014-Sep-11 18:33N 49°06' W 123°18'0 0.2
2014-Sep-11 17:25N 49°06' W 123°18'4 5.0
2014-Sep-11 16:32N 49°08' W 123°12'  
Track history (hours):
 
Tides and Currents Weather Stations Pressure Air Temp Water Temp Dewpoint Dewpoint Depression Visibility Wind Speed Wind Dir Waves Ship Positions

Profiler II Survey

Last reported at 2014-Sep-16 19:26 UTC. Time now 2014-Sep-17 19:40 UTC.
Position N 49°12' W 122°55'.

Length 11 m.

Type: Dredging. MMSI: 316002054.

Date/timePositionNaut miles runAvg speedWind from/ knotsBaromVisibWave heightAir tempDewpointWater temp
2014-Sep-16 19:26N 49°12' W 122°55'11 9.6
2014-Sep-16 18:15N 49°07' W 123°11'2 3.2
2014-Sep-16 17:33N 49°08' W 123°14'1 0.9
2014-Sep-16 16:33N 49°08' W 123°13'1 0.1
2014-Sep-15 21:19N 49°07' W 123°11'2 2.2
2014-Sep-15 20:33N 49°08' W 123°13'0 0.4
2014-Sep-15 19:32N 49°08' W 123°14'1 1.0
2014-Sep-15 18:32N 49°08' W 123°12'0 0.1
2014-Sep-15 17:33N 49°08' W 123°13'0 0.4
2014-Sep-15 16:32N 49°08' W 123°13'1 1.4
2014-Sep-15 15:31N 49°07' W 123°11'  
2014-Sep-11 21:27N 49°07' W 123°11'5 5.8
2014-Sep-11 20:32N 49°06' W 123°19'0 0.2
2014-Sep-11 19:33N 49°06' W 123°19'1 0.7
2014-Sep-11 18:33N 49°06' W 123°18'0 0.2
2014-Sep-11 17:25N 49°06' W 123°18'4 5.0
2014-Sep-11 16:32N 49°08' W 123°12'  

Dump ship's entire track history